Terminal Aerodrome Forecast
Issued by NWS

Home | Current Version | Previous Version | Text Only | Print | Product List | Glossary On
Versions: 1 2 3 4 5 6 7 8 9 10 11 12 13 14 15 16 17 18 19 20 21
000
FTUS45 KFGZ 192334
TAFSEZ
TAF
KSEZ 192334Z 2000/2024 20010KT 4SM -RA BR OVC009
      TEMPO 2000/2004 1SM RA BR OVC004
     FM200400 VRB04KT P6SM VCFG BKN015
     FM201800 20011KT 2SM RASN BR OVC010=

USA.gov is the U.S. government's official web portal to all federal, state and local government web resources and services.